sensor_id;sensor_type;location;lat;lon;timestamp;pressure;altitude;pressure_sealevel;temperature;humidity
11710;BME280;5911;51.036;6.972;2022-09-09T00:00:48;100077.34;;;20.57;100.00
11710;BME280;5911;51.036;6.972;2022-09-09T00:03:19;100062.28;;;20.56;100.00
11710;BME280;5911;51.036;6.972;2022-09-09T00:05:57;100055.28;;;20.55;100.00
11710;BME280;5911;51.036;6.972;2022-09-09T00:08:35;100051.56;;;20.56;100.00
11710;BME280;5911;51.036;6.972;2022-09-09T00:11:05;100040.81;;;20.49;100.00
11710;BME280;5911;51.036;6.972;2022-09-09T00:13:41;100042.06;;;20.47;100.00
11710;BME280;5911;51.036;6.972;2022-09-09T00:16:15;100036.72;;;20.47;100.00
11710;BME280;5911;51.036;6.972;2022-09-09T00:18:52;100029.69;;;20.46;100.00
11710;BME280;5911;51.036;6.972;2022-09-09T00:21:26;100025.16;;;20.46;100.00
11710;BME280;5911;51.036;6.972;2022-09-09T00:23:59;100032.59;;;20.44;100.00
11710;BME280;5911;51.036;6.972;2022-09-09T00:26:32;100039.16;;;20.42;100.00
11710;BME280;5911;51.036;6.972;2022-09-09T00:29:13;100031.13;;;20.42;100.00
11710;BME280;5911;51.036;6.972;2022-09-09T00:31:42;100030.09;;;20.43;100.00
11710;BME280;5911;51.036;6.972;2022-09-09T00:34:13;100031.53;;;20.39;100.00
11710;BME280;5911;51.036;6.972;2022-09-09T00:36:43;100030.50;;;20.40;100.00
11710;BME280;5911;51.036;6.972;2022-09-09T00:39:17;100033.38;;;20.38;100.00
11710;BME280;5911;51.036;6.972;2022-09-09T00:41:57;100032.16;;;20.41;100.00
11710;BME280;5911;51.036;6.972;2022-09-09T00:44:33;100034.56;;;20.35;100.00
11710;BME280;5911;51.036;6.972;2022-09-09T00:47:17;100029.41;;;20.34;100.00
11710;BME280;5911;51.036;6.972;2022-09-09T00:50:00;100039.56;;;20.39;100.00
11710;BME280;5911;51.036;6.972;2022-09-09T00:52:36;100019.72;;;20.26;100.00
11710;BME280;5911;51.036;6.972;2022-09-09T00:55:15;100040.78;;;20.36;100.00
11710;BME280;5911;51.036;6.972;2022-09-09T00:57:50;100040.34;;;20.32;100.00
11710;BME280;5911;51.036;6.972;2022-09-09T01:00:22;100024.06;;;20.27;100.00
11710;BME280;5911;51.036;6.972;2022-09-09T01:03:19;100032.56;;;20.38;100.00
11710;BME280;5911;51.036;6.972;2022-09-09T01:05:58;100034.22;;;20.39;100.00
11710;BME280;5911;51.036;6.972;2022-09-09T01:11:21;100017.69;;;20.35;100.00
11710;BME280;5911;51.036;6.972;2022-09-09T01:13:56;100033.19;;;20.40;100.00
11710;BME280;5911;51.036;6.972;2022-09-09T01:16:31;100031.72;;;20.37;100.00
11710;BME280;5911;51.036;6.972;2022-09-09T01:19:02;100039.94;;;20.35;100.00
11710;BME280;5911;51.036;6.972;2022-09-09T01:21:38;100028.41;;;20.28;100.00
11710;BME280;5911;51.036;6.972;2022-09-09T01:24:22;100047.78;;;20.30;100.00
11710;BME280;5911;51.036;6.972;2022-09-09T01:27:06;100036.22;;;20.30;100.00
11710;BME280;5911;51.036;6.972;2022-09-09T01:29:34;100034.59;;;20.29;100.00
11710;BME280;5911;51.036;6.972;2022-09-09T01:32:40;100039.13;;;20.28;100.00
11710;BME280;5911;51.036;6.972;2022-09-09T01:35:12;100041.56;;;20.23;100.00
11710;BME280;5911;51.036;6.972;2022-09-09T01:37:42;100041.97;;;20.20;100.00
11710;BME280;5911;51.036;6.972;2022-09-09T01:40:10;100040.72;;;20.16;98.95
11710;BME280;5911;51.036;6.972;2022-09-09T01:42:39;100037.44;;;20.21;99.47
11710;BME280;5911;51.036;6.972;2022-09-09T01:45:08;100030.81;;;20.17;97.92
11710;BME280;5911;51.036;6.972;2022-09-09T01:47:37;100035.56;;;20.15;98.54
11710;BME280;5911;51.036;6.972;2022-09-09T01:50:17;100045.03;;;20.17;99.25
11710;BME280;5911;51.036;6.972;2022-09-09T01:52:47;100042.78;;;20.14;97.13
11710;BME280;5911;51.036;6.972;2022-09-09T01:55:26;100039.69;;;20.17;100.00
11710;BME280;5911;51.036;6.972;2022-09-09T01:58:09;100043.63;;;20.21;99.94
11710;BME280;5911;51.036;6.972;2022-09-09T02:00:54;100043.81;;;20.20;98.32
11710;BME280;5911;51.036;6.972;2022-09-09T02:03:26;100049.78;;;20.15;96.87
11710;BME280;5911;51.036;6.972;2022-09-09T02:06:10;100050.97;;;20.06;95.34
11710;BME280;5911;51.036;6.972;2022-09-09T02:08:45;100044.19;;;20.10;95.68
11710;BME280;5911;51.036;6.972;2022-09-09T02:11:17;100051.22;;;20.18;97.01
11710;BME280;5911;51.036;6.972;2022-09-09T02:14:15;100045.66;;;20.19;95.97
11710;BME280;5911;51.036;6.972;2022-09-09T02:16:50;100025.47;;;20.10;97.16
11710;BME280;5911;51.036;6.972;2022-09-09T02:19:25;100045.88;;;20.24;97.94
11710;BME280;5911;51.036;6.972;2022-09-09T02:22:02;100046.31;;;20.28;98.79
11710;BME280;5911;51.036;6.972;2022-09-09T02:24:32;100039.50;;;20.25;97.53
11710;BME280;5911;51.036;6.972;2022-09-09T02:27:11;100041.59;;;20.30;99.53
11710;BME280;5911;51.036;6.972;2022-09-09T02:29:42;100038.47;;;20.26;98.30
11710;BME280;5911;51.036;6.972;2022-09-09T02:32:17;100040.13;;;20.27;100.00
11710;BME280;5911;51.036;6.972;2022-09-09T02:34:47;100037.47;;;20.27;100.00
11710;BME280;5911;51.036;6.972;2022-09-09T02:37:18;100040.53;;;20.24;98.81
11710;BME280;5911;51.036;6.972;2022-09-09T02:39:51;100045.66;;;20.19;98.60
11710;BME280;5911;51.036;6.972;2022-09-09T02:42:21;100037.81;;;20.11;98.74
11710;BME280;5911;51.036;6.972;2022-09-09T02:44:53;100036.81;;;20.19;99.71
11710;BME280;5911;51.036;6.972;2022-09-09T02:47:27;100040.31;;;20.19;99.66
11710;BME280;5911;51.036;6.972;2022-09-09T02:50:08;100024.47;;;20.24;100.00
11710;BME280;5911;51.036;6.972;2022-09-09T02:52:50;100034.56;;;20.22;100.00
11710;BME280;5911;51.036;6.972;2022-09-09T02:55:25;100036.19;;;20.23;100.00
11710;BME280;5911;51.036;6.972;2022-09-09T02:57:56;100039.91;;;20.16;99.30
11710;BME280;5911;51.036;6.972;2022-09-09T03:00:29;100035.38;;;20.16;98.97
11710;BME280;5911;51.036;6.972;2022-09-09T03:03:00;100030.81;;;20.10;99.40
11710;BME280;5911;51.036;6.972;2022-09-09T03:05:27;100034.75;;;20.14;100.00
11710;BME280;5911;51.036;6.972;2022-09-09T03:07:55;100032.47;;;20.11;99.60
11710;BME280;5911;51.036;6.972;2022-09-09T03:10:23;100018.63;;;20.01;99.19
11710;BME280;5911;51.036;6.972;2022-09-09T03:12:51;100027.13;;;20.18;100.00
11710;BME280;5911;51.036;6.972;2022-09-09T03:15:19;100006.88;;;20.02;100.00
11710;BME280;5911;51.036;6.972;2022-09-09T03:17:48;100020.09;;;20.17;100.00
11710;BME280;5911;51.036;6.972;2022-09-09T03:20:16;100026.72;;;20.21;100.00
11710;BME280;5911;51.036;6.972;2022-09-09T03:22:45;100031.03;;;20.15;99.98
11710;BME280;5911;51.036;6.972;2022-09-09T03:25:13;100019.91;;;20.12;100.00
11710;BME280;5911;51.036;6.972;2022-09-09T03:27:41;100026.47;;;20.09;99.56
11710;BME280;5911;51.036;6.972;2022-09-09T03:30:11;100013.94;;;20.16;99.18
11710;BME280;5911;51.036;6.972;2022-09-09T03:32:39;100019.31;;;20.16;100.00
11710;BME280;5911;51.036;6.972;2022-09-09T03:35:14;100012.69;;;20.12;100.00
11710;BME280;5911;51.036;6.972;2022-09-09T03:37:43;100021.16;;;20.16;100.00
11710;BME280;5911;51.036;6.972;2022-09-09T03:40:12;100014.75;;;20.10;100.00
11710;BME280;5911;51.036;6.972;2022-09-09T03:42:41;100026.72;;;20.14;100.00
11710;BME280;5911;51.036;6.972;2022-09-09T03:45:09;100025.06;;;20.13;100.00
11710;BME280;5911;51.036;6.972;2022-09-09T03:47:40;100021.75;;;20.11;100.00
11710;BME280;5911;51.036;6.972;2022-09-09T03:50:09;100021.75;;;20.11;100.00
11710;BME280;5911;51.036;6.972;2022-09-09T03:52:44;100027.09;;;20.11;99.51
11710;BME280;5911;51.036;6.972;2022-09-09T03:55:18;100025.84;;;20.07;99.96
11710;BME280;5911;51.036;6.972;2022-09-09T03:57:46;100020.72;;;20.12;100.00
11710;BME280;5911;51.036;6.972;2022-09-09T04:00:14;100013.69;;;20.05;100.00
11710;BME280;5911;51.036;6.972;2022-09-09T04:02:43;100023.19;;;20.07;98.81
11710;BME280;5911;51.036;6.972;2022-09-09T04:05:14;100027.09;;;20.11;100.00
11710;BME280;5911;51.036;6.972;2022-09-09T04:07:46;100026.25;;;20.04;98.33
11710;BME280;5911;51.036;6.972;2022-09-09T04:10:14;100024.00;;;20.01;98.46
11710;BME280;5911;51.036;6.972;2022-09-09T04:12:43;100016.31;;;19.91;99.45
11710;BME280;5911;51.036;6.972;2022-09-09T04:15:15;100030.97;;;20.02;99.16
11710;BME280;5911;51.036;6.972;2022-09-09T04:17:45;100025.84;;;20.07;100.00
11710;BME280;5911;51.036;6.972;2022-09-09T04:20:13;100023.41;;;20.12;100.00
11710;BME280;5911;51.036;6.972;2022-09-09T04:22:42;100021.34;;;20.14;100.00
11710;BME280;5911;51.036;6.972;2022-09-09T04:25:11;100019.91;;;20.12;99.96
11710;BME280;5911;51.036;6.972;2022-09-09T04:27:39;100021.34;;;20.14;99.76
11710;BME280;5911;51.036;6.972;2022-09-09T04:30:07;100008.16;;;20.13;99.57
11710;BME280;5911;51.036;6.972;2022-09-09T04:32:36;99996.59;;;19.99;100.00
11710;BME280;5911;51.036;6.972;2022-09-09T04:35:04;100013.28;;;20.08;100.00
11710;BME280;5911;51.036;6.972;2022-09-09T04:37:33;100021.75;;;20.11;100.00
11710;BME280;5911;51.036;6.972;2022-09-09T04:40:01;100025.06;;;20.13;100.00
11710;BME280;5911;51.036;6.972;2022-09-09T04:42:34;100022.97;;;20.09;99.04
11710;BME280;5911;51.036;6.972;2022-09-09T04:45:03;100026.47;;;20.09;99.57
11710;BME280;5911;51.036;6.972;2022-09-09T04:47:31;100004.41;;;19.94;99.49
11710;BME280;5911;51.036;6.972;2022-09-09T04:49:59;100025.06;;;20.13;100.00
11710;BME280;5911;51.036;6.972;2022-09-09T04:52:27;100031.84;;;20.09;100.00
11710;BME280;5911;51.036;6.972;2022-09-09T04:54:55;100032.47;;;20.11;100.00
11710;BME280;5911;51.036;6.972;2022-09-09T04:57:23;100028.97;;;20.11;100.00
11710;BME280;5911;51.036;6.972;2022-09-09T04:59:52;100026.25;;;20.04;100.00
11710;BME280;5911;51.036;6.972;2022-09-09T05:02:20;100034.50;;;20.09;100.00
11710;BME280;5911;51.036;6.972;2022-09-09T05:04:49;100028.13;;;20.10;100.00
11710;BME280;5911;51.036;6.972;2022-09-09T05:07:17;100033.06;;;20.07;99.13
11710;BME280;5911;51.036;6.972;2022-09-09T05:09:45;100029.56;;;20.06;99.48
11710;BME280;5911;51.036;6.972;2022-09-09T05:12:15;100028.34;;;20.09;99.41
11710;BME280;5911;51.036;6.972;2022-09-09T05:14:49;100031.44;;;20.12;100.00
11710;BME280;5911;51.036;6.972;2022-09-09T05:17:18;100028.53;;;20.07;98.78
11710;BME280;5911;51.036;6.972;2022-09-09T05:19:47;100028.53;;;20.07;99.34
11710;BME280;5911;51.036;6.972;2022-09-09T05:22:18;100029.38;;;20.14;100.00
11710;BME280;5911;51.036;6.972;2022-09-09T05:24:47;100016.78;;;20.08;100.00
11710;BME280;5911;51.036;6.972;2022-09-09T05:27:17;100015.34;;;20.06;100.00
11710;BME280;5911;51.036;6.972;2022-09-09T05:29:47;100023.81;;;20.09;100.00
11710;BME280;5911;51.036;6.972;2022-09-09T05:32:15;100012.25;;;20.09;100.00
11710;BME280;5911;51.036;6.972;2022-09-09T05:34:48;100014.31;;;20.07;100.00
11710;BME280;5911;51.036;6.972;2022-09-09T05:37:16;100021.31;;;20.01;100.00
11710;BME280;5911;51.036;6.972;2022-09-09T05:39:44;100025.41;;;19.97;100.00
11710;BME280;5911;51.036;6.972;2022-09-09T05:42:12;100016.75;;;19.95;100.00
11710;BME280;5911;51.036;6.972;2022-09-09T05:44:40;100021.28;;;19.94;100.00
11710;BME280;5911;51.036;6.972;2022-09-09T05:47:09;100026.25;;;19.97;100.00
11710;BME280;5911;51.036;6.972;2022-09-09T05:49:37;100023.31;;;19.86;100.00
11710;BME280;5911;51.036;6.972;2022-09-09T05:52:06;100031.13;;;19.87;100.00
11710;BME280;5911;51.036;6.972;2022-09-09T05:54:34;100036.91;;;19.84;100.00
11710;BME280;5911;51.036;6.972;2022-09-09T05:57:02;100041.44;;;19.90;100.00
11710;BME280;5911;51.036;6.972;2022-09-09T05:59:30;100034.47;;;19.96;100.00
11710;BME280;5911;51.036;6.972;2022-09-09T06:01:59;100028.50;;;19.94;100.00
11710;BME280;5911;51.036;6.972;2022-09-09T06:04:33;100030.34;;;19.93;100.00
11710;BME280;5911;51.036;6.972;2022-09-09T06:07:02;100034.44;;;19.83;100.00
11710;BME280;5911;51.036;6.972;2022-09-09T06:09:31;100024.91;;;19.74;100.00
11710;BME280;5911;51.036;6.972;2022-09-09T06:11:59;100023.53;;;19.84;100.00
11710;BME280;5911;51.036;6.972;2022-09-09T06:14:30;100028.25;;;19.89;100.00
11710;BME280;5911;51.036;6.972;2022-09-09T06:16:59;100028.25;;;19.82;100.00
11710;BME280;5911;51.036;6.972;2022-09-09T06:19:29;100038.34;;;19.87;100.00
11710;BME280;5911;51.036;6.972;2022-09-09T06:21:58;100034.47;;;19.96;100.00
11710;BME280;5911;51.036;6.972;2022-09-09T06:24:28;100035.31;;;20.03;100.00
11710;BME280;5911;51.036;6.972;2022-09-09T06:26:59;100032.03;;;20.08;100.00
11710;BME280;5911;51.036;6.972;2022-09-09T06:29:30;100042.50;;;20.02;100.00
11710;BME280;5911;51.036;6.972;2022-09-09T06:32:00;100042.31;;;20.04;100.00
11710;BME280;5911;51.036;6.972;2022-09-09T06:34:29;100038.41;;;20.00;100.00
11710;BME280;5911;51.036;6.972;2022-09-09T06:36:58;100044.16;;;19.97;100.00
11710;BME280;5911;51.036;6.972;2022-09-09T06:39:33;100043.13;;;19.98;100.00
11710;BME280;5911;51.036;6.972;2022-09-09T06:42:03;100048.50;;;19.98;100.00
11710;BME280;5911;51.036;6.972;2022-09-09T06:44:51;100040.84;;;19.95;100.00
11710;BME280;5911;51.036;6.972;2022-09-09T06:47:28;100048.06;;;19.94;100.00
11710;BME280;5911;51.036;6.972;2022-09-09T06:49:57;100040.06;;;20.01;100.00
11710;BME280;5911;51.036;6.972;2022-09-09T06:52:25;100037.78;;;19.98;100.00
11710;BME280;5911;51.036;6.972;2022-09-09T06:54:54;100038.22;;;20.08;100.00
11710;BME280;5911;51.036;6.972;2022-09-09T06:57:26;100039.47;;;20.12;100.00
11710;BME280;5911;51.036;6.972;2022-09-09T07:00:15;100038.22;;;20.08;100.00
11710;BME280;5911;51.036;6.972;2022-09-09T07:02:43;100037.81;;;20.11;100.00
11710;BME280;5911;51.036;6.972;2022-09-09T07:05:12;100035.56;;;20.21;100.00
11710;BME280;5911;51.036;6.972;2022-09-09T07:07:43;100046.09;;;20.16;99.47
11710;BME280;5911;51.036;6.972;2022-09-09T07:10:13;100034.16;;;20.25;99.65
11710;BME280;5911;51.036;6.972;2022-09-09T07:12:42;100037.06;;;20.30;98.31
11710;BME280;5911;51.036;6.972;2022-09-09T07:15:11;100034.38;;;20.30;96.56
11710;BME280;5911;51.036;6.972;2022-09-09T07:17:43;100036.63;;;20.33;95.77
11710;BME280;5911;51.036;6.972;2022-09-09T07:20:14;100043.28;;;20.38;95.21
11710;BME280;5911;51.036;6.972;2022-09-09T07:22:45;100042.88;;;20.41;93.43
11710;BME280;5911;51.036;6.972;2022-09-09T07:25:16;100047.00;;;20.50;94.21
11710;BME280;5911;51.036;6.972;2022-09-09T07:27:47;100045.28;;;20.35;93.27
11710;BME280;5911;51.036;6.972;2022-09-09T07:30:18;100058.31;;;20.39;93.50
11710;BME280;5911;51.036;6.972;2022-09-09T07:32:53;100054.34;;;20.34;91.86
11710;BME280;5911;51.036;6.972;2022-09-09T07:35:24;100057.53;;;20.45;92.87
11710;BME280;5911;51.036;6.972;2022-09-09T07:37:52;100068.03;;;20.53;93.68
11710;BME280;5911;51.036;6.972;2022-09-09T07:40:20;100067.41;;;20.51;89.34
11710;BME280;5911;51.036;6.972;2022-09-09T07:42:53;100065.56;;;20.45;88.84
11710;BME280;5911;51.036;6.972;2022-09-09T07:45:21;100079.59;;;20.47;89.62
11710;BME280;5911;51.036;6.972;2022-09-09T07:47:49;100063.41;;;20.33;88.31
11710;BME280;5911;51.036;6.972;2022-09-09T07:50:17;100083.69;;;20.43;88.72
11710;BME280;5911;51.036;6.972;2022-09-09T07:52:48;100081.84;;;20.50;86.43
11710;BME280;5911;51.036;6.972;2022-09-09T07:55:19;100075.84;;;20.48;85.90
11710;BME280;5911;51.036;6.972;2022-09-09T07:57:48;100083.13;;;20.60;85.91
11710;BME280;5911;51.036;6.972;2022-09-09T08:00:21;100080.84;;;20.64;84.25
11710;BME280;5911;51.036;6.972;2022-09-09T08:02:57;100082.91;;;20.68;84.50
11710;BME280;5911;51.036;6.972;2022-09-09T08:05:30;100080.03;;;20.70;83.97
11710;BME280;5911;51.036;6.972;2022-09-09T08:07:57;100081.69;;;20.71;85.82
11710;BME280;5911;51.036;6.972;2022-09-09T08:10:27;100083.75;;;20.69;85.10
11710;BME280;5911;51.036;6.972;2022-09-09T08:12:55;100088.28;;;20.68;84.84
11710;BME280;5911;51.036;6.972;2022-09-09T08:15:44;100083.75;;;20.69;82.21
11710;BME280;5911;51.036;6.972;2022-09-09T08:18:12;100069.09;;;20.65;85.70
11710;BME280;5911;51.036;6.972;2022-09-09T08:20:40;100077.13;;;20.78;85.36
11710;BME280;5911;51.036;6.972;2022-09-09T08:23:09;100077.13;;;20.78;83.69
11710;BME280;5911;51.036;6.972;2022-09-09T08:25:37;100083.31;;;20.79;81.58
11710;BME280;5911;51.036;6.972;2022-09-09T08:28:08;100060.63;;;20.55;77.76
11710;BME280;5911;51.036;6.972;2022-09-09T08:30:38;100080.25;;;20.62;75.19
11710;BME280;5911;51.036;6.972;2022-09-09T08:33:08;100076.09;;;20.66;75.99
11710;BME280;5911;51.036;6.972;2022-09-09T08:35:36;100085.81;;;20.80;76.95
11710;BME280;5911;51.036;6.972;2022-09-09T08:38:05;100092.41;;;20.84;75.86
11710;BME280;5911;51.036;6.972;2022-09-09T08:40:42;100086.44;;;20.89;74.71
11710;BME280;5911;51.036;6.972;2022-09-09T08:43:13;100089.53;;;20.99;75.38
11710;BME280;5911;51.036;6.972;2022-09-09T08:45:50;100092.03;;;21.00;72.95
11710;BME280;5911;51.036;6.972;2022-09-09T08:48:39;100085.84;;;21.06;73.23
11710;BME280;5911;51.036;6.972;2022-09-09T08:51:09;100080.47;;;21.00;74.40
11710;BME280;5911;51.036;6.972;2022-09-09T08:53:41;100096.97;;;21.03;73.60
11710;BME280;5911;51.036;6.972;2022-09-09T08:56:13;100084.59;;;20.96;72.10
11710;BME280;5911;51.036;6.972;2022-09-09T08:58:47;100101.09;;;20.99;70.65
11710;BME280;5911;51.036;6.972;2022-09-09T09:01:38;100110.38;;;21.03;69.07
11710;BME280;5911;51.036;6.972;2022-09-09T09:04:22;100105.00;;;20.97;68.25
11710;BME280;5911;51.036;6.972;2022-09-09T09:07:05;100099.47;;;20.92;68.08
11710;BME280;5911;51.036;6.972;2022-09-09T09:09:44;100106.88;;;20.96;66.63
11710;BME280;5911;51.036;6.972;2022-09-09T09:12:16;100111.19;;;20.97;66.12
11710;BME280;5911;51.036;6.972;2022-09-09T09:14:46;100101.72;;;21.01;64.73
11710;BME280;5911;51.036;6.972;2022-09-09T09:17:18;100101.31;;;21.18;66.87
11710;BME280;5911;51.036;6.972;2022-09-09T09:19:49;100111.66;;;21.21;66.61
11710;BME280;5911;51.036;6.972;2022-09-09T09:22:19;100107.50;;;21.18;65.49
11710;BME280;5911;51.036;6.972;2022-09-09T09:24:54;100113.06;;;21.10;64.24
11710;BME280;5911;51.036;6.972;2022-09-09T09:27:31;100115.75;;;21.03;64.50
11710;BME280;5911;51.036;6.972;2022-09-09T09:30:01;100099.03;;;20.88;63.61
11710;BME280;5911;51.036;6.972;2022-09-09T09:32:53;100099.84;;;20.95;64.78
11710;BME280;5911;51.036;6.972;2022-09-09T09:35:23;100109.53;;;20.96;65.75
11710;BME280;5911;51.036;6.972;2022-09-09T09:37:54;100104.81;;;21.05;67.44
11710;BME280;5911;51.036;6.972;2022-09-09T09:40:51;100101.94;;;21.06;69.28
11710;BME280;5911;51.036;6.972;2022-09-09T09:43:25;100105.63;;;21.12;70.95
11710;BME280;5911;51.036;6.972;2022-09-09T09:45:56;100107.50;;;21.12;70.86
11710;BME280;5911;51.036;6.972;2022-09-09T09:48:45;100113.50;;;21.07;68.88
11710;BME280;5911;51.036;6.972;2022-09-09T09:51:30;100112.25;;;21.03;67.25
11710;BME280;5911;51.036;6.972;2022-09-09T09:54:13;100112.22;;;21.10;68.85
11710;BME280;5911;51.036;6.972;2022-09-09T09:56:47;100119.69;;;21.08;68.23
11710;BME280;5911;51.036;6.972;2022-09-09T09:59:23;100108.53;;;21.11;68.58
11710;BME280;5911;51.036;6.972;2022-09-09T10:02:38;100120.53;;;21.21;69.15
11710;BME280;5911;51.036;6.972;2022-09-09T10:05:14;100117.44;;;21.37;68.82
11710;BME280;5911;51.036;6.972;2022-09-09T10:08:00;100106.47;;;21.52;69.81
11710;BME280;5911;51.036;6.972;2022-09-09T10:10:37;100106.03;;;21.55;67.41
11710;BME280;5911;51.036;6.972;2022-09-09T10:13:18;100102.13;;;21.64;70.45
11710;BME280;5911;51.036;6.972;2022-09-09T10:15:59;100105.00;;;21.63;68.23
11710;BME280;5911;51.036;6.972;2022-09-09T10:18:40;100093.66;;;21.54;67.05
11710;BME280;5911;51.036;6.972;2022-09-09T10:21:21;100104.16;;;21.75;70.30
11710;BME280;5911;51.036;6.972;2022-09-09T10:24:18;100101.06;;;21.72;68.69
11710;BME280;5911;51.036;6.972;2022-09-09T10:26:55;100084.13;;;21.71;69.64
11710;BME280;5911;51.036;6.972;2022-09-09T10:29:47;100102.28;;;21.83;66.24
11710;BME280;5911;51.036;6.972;2022-09-09T10:32:33;100097.34;;;21.80;65.38
11710;BME280;5911;51.036;6.972;2022-09-09T10:35:10;100098.13;;;21.87;66.99
11710;BME280;5911;51.036;6.972;2022-09-09T10:38:13;100099.75;;;22.01;69.86
11710;BME280;5911;51.036;6.972;2022-09-09T10:40:49;100084.28;;;21.90;67.49
11710;BME280;5911;51.036;6.972;2022-09-09T10:43:39;100075.66;;;21.81;67.56
11710;BME280;5911;51.036;6.972;2022-09-09T10:46:18;100089.03;;;21.88;66.58
11710;BME280;5911;51.036;6.972;2022-09-09T10:49:00;100085.94;;;21.91;67.62
11710;BME280;5911;51.036;6.972;2022-09-09T10:51:37;100082.00;;;21.87;66.51
11710;BME280;5911;51.036;6.972;2022-09-09T10:54:30;100088.00;;;21.89;67.09
11710;BME280;5911;51.036;6.972;2022-09-09T10:57:07;100090.47;;;21.97;65.91
11710;BME280;5911;51.036;6.972;2022-09-09T10:59:41;100092.56;;;21.82;63.96
11710;BME280;5911;51.036;6.972;2022-09-09T11:02:15;100091.06;;;22.12;65.96
11710;BME280;5911;51.036;6.972;2022-09-09T11:04:50;100088.94;;;22.21;63.07
11710;BME280;5911;51.036;6.972;2022-09-09T11:07:27;100088.50;;;22.24;63.17
11710;BME280;5911;51.036;6.972;2022-09-09T11:09:59;100070.31;;;22.26;65.51
11710;BME280;5911;51.036;6.972;2022-09-09T11:12:31;100075.50;;;22.59;66.69
11710;BME280;5911;51.036;6.972;2022-09-09T11:15:06;100089.47;;;22.42;62.96
11710;BME280;5911;51.036;6.972;2022-09-09T11:17:43;100057.94;;;22.18;64.61
11710;BME280;5911;51.036;6.972;2022-09-09T11:20:13;100076.09;;;22.29;63.50
11710;BME280;5911;51.036;6.972;2022-09-09T11:22:48;100089.53;;;22.29;64.08
11710;BME280;5911;51.036;6.972;2022-09-09T11:25:21;100081.50;;;22.16;63.83
11710;BME280;5911;51.036;6.972;2022-09-09T11:28:06;100076.19;;;22.03;64.38
11710;BME280;5911;51.036;6.972;2022-09-09T11:30:48;100064.84;;;22.01;64.01
11710;BME280;5911;51.036;6.972;2022-09-09T11:33:55;100067.94;;;21.98;63.53
11710;BME280;5911;51.036;6.972;2022-09-09T11:36:38;100074.56;;;21.95;63.23
11710;BME280;5911;51.036;6.972;2022-09-09T11:39:31;100074.81;;;21.81;61.42
11710;BME280;5911;51.036;6.972;2022-09-09T11:42:12;100057.28;;;21.71;62.94
11710;BME280;5911;51.036;6.972;2022-09-09T11:44:45;100070.66;;;21.85;62.65
11710;BME280;5911;51.036;6.972;2022-09-09T11:47:21;100071.66;;;21.90;62.36
11710;BME280;5911;51.036;6.972;2022-09-09T11:49:53;100049.00;;;21.80;62.69
11710;BME280;5911;51.036;6.972;2022-09-09T11:52:38;100068.56;;;22.00;61.62
11710;BME280;5911;51.036;6.972;2022-09-09T11:55:09;100074.13;;;22.05;62.26
11710;BME280;5911;51.036;6.972;2022-09-09T11:57:38;100055.97;;;21.87;60.91
11710;BME280;5911;51.036;6.972;2022-09-09T12:00:32;100080.34;;;21.99;60.46
11710;BME280;5911;51.036;6.972;2022-09-09T12:03:01;100068.56;;;22.00;61.97
11710;BME280;5911;51.036;6.972;2022-09-09T12:05:42;100076.63;;;22.00;62.66
11710;BME280;5911;51.036;6.972;2022-09-09T12:08:18;100072.06;;;22.00;61.37
11710;BME280;5911;51.036;6.972;2022-09-09T12:10:53;100043.78;;;21.85;61.75
11710;BME280;5911;51.036;6.972;2022-09-09T12:13:29;100067.94;;;21.98;59.72
11710;BME280;5911;51.036;6.972;2022-09-09T12:16:03;100071.66;;;21.97;61.57
11710;BME280;5911;51.036;6.972;2022-09-09T12:18:33;100042.16;;;21.84;62.15
11710;BME280;5911;51.036;6.972;2022-09-09T12:21:08;100067.94;;;21.98;61.59
11710;BME280;5911;51.036;6.972;2022-09-09T12:23:50;100059.69;;;21.93;61.95
11710;BME280;5911;51.036;6.972;2022-09-09T12:26:28;100033.56;;;21.68;62.53
11710;BME280;5911;51.036;6.972;2022-09-09T12:29:04;100061.19;;;21.82;60.65
11710;BME280;5911;51.036;6.972;2022-09-09T12:31:41;100062.84;;;21.76;60.99
11710;BME280;5911;51.036;6.972;2022-09-09T12:34:15;100068.16;;;21.90;60.59
11710;BME280;5911;51.036;6.972;2022-09-09T12:36:48;100066.47;;;22.02;60.61
11710;BME280;5911;51.036;6.972;2022-09-09T12:39:29;100068.56;;;22.00;60.15
11710;BME280;5911;51.036;6.972;2022-09-09T12:41:59;100059.47;;;22.01;61.53
11710;BME280;5911;51.036;6.972;2022-09-09T12:44:27;100060.06;;;22.03;60.41
11710;BME280;5911;51.036;6.972;2022-09-09T12:47:00;100057.19;;;21.98;60.89
11710;BME280;5911;51.036;6.972;2022-09-09T12:49:33;100062.59;;;21.91;60.61
11710;BME280;5911;51.036;6.972;2022-09-09T12:52:04;100059.69;;;21.86;61.71
11710;BME280;5911;51.036;6.972;2022-09-09T12:54:35;100065.56;;;21.63;64.65
11710;BME280;5911;51.036;6.972;2022-09-09T12:57:05;100065.19;;;21.53;69.99
11710;BME280;5911;51.036;6.972;2022-09-09T12:59:38;100110.81;;;21.27;72.86
11710;BME280;5911;51.036;6.972;2022-09-09T13:02:18;100065.19;;;20.94;93.01
11710;BME280;5911;51.036;6.972;2022-09-09T13:04:47;100053.22;;;20.83;100.00
11710;BME280;5911;51.036;6.972;2022-09-09T13:07:17;100072.47;;;21.20;99.67
11710;BME280;5911;51.036;6.972;2022-09-09T13:09:46;100064.75;;;21.56;98.63
11710;BME280;5911;51.036;6.972;2022-09-09T13:12:18;100056.03;;;21.74;99.51
11710;BME280;5911;51.036;6.972;2022-09-09T13:14:48;100053.28;;;21.87;96.15
11710;BME280;5911;51.036;6.972;2022-09-09T13:17:21;100035.81;;;21.65;98.33
11710;BME280;5911;51.036;6.972;2022-09-09T13:19:50;100048.59;;;21.76;100.00
11710;BME280;5911;51.036;6.972;2022-09-09T13:22:21;100049.25;;;21.58;99.65
11710;BME280;5911;51.036;6.972;2022-09-09T13:25:03;100046.59;;;21.45;99.04
11710;BME280;5911;51.036;6.972;2022-09-09T13:27:33;100044.75;;;21.39;98.79
11710;BME280;5911;51.036;6.972;2022-09-09T13:30:01;100041.28;;;21.32;99.61
11710;BME280;5911;51.036;6.972;2022-09-09T13:32:30;100043.13;;;21.25;97.90
11710;BME280;5911;51.036;6.972;2022-09-09T13:35:00;100037.59;;;21.20;98.69